createdAt,value
2018-11-26T00:00:22.523Z,9.70
2018-11-26T00:02:50.977Z,9.70
2018-11-26T00:05:19.909Z,9.70
2018-11-26T00:07:48.262Z,9.70
2018-11-26T00:11:25.196Z,9.80
2018-11-26T00:13:53.502Z,9.80
2018-11-26T00:16:21.839Z,9.80
2018-11-26T00:18:50.193Z,9.80
2018-11-26T00:21:18.568Z,9.80
2018-11-26T00:23:46.949Z,9.90
2018-11-26T00:26:15.422Z,9.90
2018-11-26T00:28:43.794Z,10.00
2018-11-26T00:31:12.205Z,10.00
2018-11-26T00:33:40.637Z,10.00
2018-11-26T00:36:09.027Z,10.00
2018-11-26T00:38:37.500Z,10.00
2018-11-26T00:41:06.331Z,10.00
2018-11-26T00:43:34.673Z,10.00
2018-11-26T00:46:03.060Z,9.90
2018-11-26T00:48:31.380Z,9.80
2018-11-26T00:50:59.688Z,9.80
2018-11-26T00:53:28.014Z,9.80
2018-11-26T00:55:56.349Z,9.70
2018-11-26T00:58:24.706Z,9.80
2018-11-26T01:00:53.029Z,9.80
2018-11-26T01:03:21.470Z,9.80
2018-11-26T01:05:49.779Z,9.80
2018-11-26T01:08:18.499Z,9.80
2018-11-26T01:10:46.779Z,9.80
2018-11-26T01:13:15.178Z,9.80
2018-11-26T01:15:43.581Z,9.80
2018-11-26T01:18:11.932Z,9.80
2018-11-26T01:20:40.249Z,9.80
2018-11-26T01:23:08.848Z,9.80
2018-11-26T01:25:38.329Z,9.80
2018-11-26T01:28:06.984Z,9.80
2018-11-26T01:30:35.844Z,9.80
2018-11-26T01:33:04.194Z,9.70
2018-11-26T01:35:32.580Z,9.70
2018-11-26T01:38:00.895Z,9.70
2018-11-26T01:40:34.590Z,9.60
2018-11-26T01:43:02.982Z,9.70
2018-11-26T01:45:31.330Z,9.70
2018-11-26T01:48:00.281Z,9.70
2018-11-26T01:50:28.609Z,9.70
2018-11-26T01:52:57.014Z,9.70
2018-11-26T01:55:25.338Z,9.70
2018-11-26T01:57:53.698Z,9.60
2018-11-26T02:00:24.008Z,9.60
2018-11-26T02:02:52.872Z,9.50
2018-11-26T02:05:21.288Z,9.40
2018-11-26T02:07:49.732Z,9.40
2018-11-26T02:10:19.233Z,9.40
2018-11-26T02:12:47.624Z,9.30
2018-11-26T02:15:26.521Z,9.30
2018-11-26T02:17:55.061Z,9.30
2018-11-26T02:20:23.395Z,9.30
2018-11-26T02:22:51.762Z,9.30
2018-11-26T02:25:20.069Z,9.30
2018-11-26T02:27:48.428Z,9.30
2018-11-26T02:30:16.866Z,9.20
2018-11-26T02:32:45.246Z,9.20
2018-11-26T02:35:14.171Z,9.20
2018-11-26T02:37:42.582Z,9.30
2018-11-26T02:40:13.170Z,9.30
2018-11-26T02:42:41.593Z,9.30
2018-11-26T02:45:09.888Z,9.30
2018-11-26T02:47:38.278Z,9.30
2018-11-26T02:50:06.642Z,9.30
2018-11-26T02:52:34.972Z,9.30
2018-11-26T02:55:03.341Z,9.40
2018-11-26T02:57:31.690Z,9.40
2018-11-26T03:00:00.001Z,9.30
2018-11-26T03:02:28.291Z,9.30
2018-11-26T03:04:56.752Z,9.30
2018-11-26T03:07:25.202Z,9.30
2018-11-26T03:09:53.595Z,9.30
2018-11-26T03:12:21.878Z,9.20
2018-11-26T03:14:50.155Z,9.20
2018-11-26T03:17:18.589Z,9.20
2018-11-26T03:19:47.032Z,9.30
2018-11-26T03:22:15.368Z,9.30
2018-11-26T03:24:43.865Z,9.30
2018-11-26T03:27:12.229Z,9.30
2018-11-26T03:29:40.642Z,9.30
2018-11-26T03:32:09.010Z,9.30
2018-11-26T03:34:37.413Z,9.20
2018-11-26T03:37:06.340Z,9.30
2018-11-26T03:39:34.904Z,9.30
2018-11-26T03:42:03.284Z,9.30
2018-11-26T03:44:31.771Z,9.40
2018-11-26T03:47:00.345Z,9.50
2018-11-26T03:49:28.879Z,9.50
2018-11-26T03:51:57.230Z,9.50
2018-11-26T03:54:25.638Z,9.60
2018-11-26T03:56:54.016Z,9.60
2018-11-26T03:59:22.479Z,9.60
2018-11-26T04:01:50.906Z,9.60
2018-11-26T04:04:19.251Z,9.60
2018-11-26T04:06:48.740Z,9.60
2018-11-26T04:09:17.230Z,9.60
2018-11-26T04:11:45.731Z,9.50
2018-11-26T04:14:14.093Z,9.50
2018-11-26T04:16:42.539Z,9.50
2018-11-26T04:19:11.171Z,9.60
2018-11-26T04:21:39.607Z,9.50
2018-11-26T04:24:07.959Z,9.50
2018-11-26T04:26:36.261Z,9.50
2018-11-26T04:29:04.584Z,9.50
2018-11-26T04:31:33.272Z,9.60
2018-11-26T04:34:01.652Z,9.60
2018-11-26T04:36:29.974Z,9.60
2018-11-26T04:38:58.496Z,9.60
2018-11-26T04:41:26.874Z,9.60
2018-11-26T04:43:55.251Z,9.60
2018-11-26T04:46:23.554Z,9.60
2018-11-26T04:48:52.384Z,9.60
2018-11-26T04:51:20.683Z,9.60
2018-11-26T04:53:48.988Z,9.70
2018-11-26T04:56:17.376Z,9.70
2018-11-26T04:58:45.724Z,9.70
2018-11-26T05:01:14.166Z,9.70
2018-11-26T05:03:42.620Z,9.70
2018-11-26T05:06:10.969Z,9.70
2018-11-26T05:08:39.325Z,9.70
2018-11-26T05:11:08.038Z,9.70
2018-11-26T05:13:36.772Z,9.60
2018-11-26T05:16:05.264Z,9.60
2018-11-26T05:18:33.595Z,9.50
2018-11-26T05:21:01.956Z,9.50
2018-11-26T05:23:30.447Z,9.50
2018-11-26T05:25:58.856Z,9.50
2018-11-26T05:28:27.484Z,9.40
2018-11-26T05:30:55.883Z,9.50
2018-11-26T05:33:24.402Z,9.50
2018-11-26T05:35:52.820Z,9.50
2018-11-26T05:38:21.321Z,9.50
2018-11-26T05:40:49.692Z,9.50
2018-11-26T05:43:18.021Z,9.60
2018-11-26T05:45:46.399Z,9.60
2018-11-26T05:48:14.727Z,9.60
2018-11-26T05:50:43.112Z,9.60
2018-11-26T05:53:11.614Z,9.60
2018-11-26T05:55:40.386Z,9.60
2018-11-26T05:58:08.849Z,9.60
2018-11-26T06:00:37.352Z,9.60
2018-11-26T06:03:06.476Z,9.60
2018-11-26T06:05:34.846Z,9.60
2018-11-26T06:08:03.147Z,9.60
2018-11-26T06:10:31.447Z,9.60
2018-11-26T06:12:59.787Z,9.50
2018-11-26T06:15:28.127Z,9.50
2018-11-26T06:17:56.484Z,9.50
2018-11-26T06:20:24.814Z,9.50
2018-11-26T06:22:53.188Z,9.50
2018-11-26T06:25:22.169Z,9.50
2018-11-26T06:27:50.537Z,9.60
2018-11-26T06:30:19.616Z,9.60
2018-11-26T06:32:48.008Z,9.60
2018-11-26T06:35:19.298Z,9.60
2018-11-26T06:37:47.669Z,9.50
2018-11-26T06:40:16.127Z,9.50
2018-11-26T06:42:44.753Z,9.50
2018-11-26T06:45:15.588Z,9.50
2018-11-26T06:47:44.225Z,9.50
2018-11-26T06:50:13.678Z,9.60
2018-11-26T06:52:42.151Z,9.60
2018-11-26T06:55:11.955Z,9.50
2018-11-26T06:57:40.474Z,9.60
2018-11-26T07:00:12.570Z,9.50
2018-11-26T07:02:41.203Z,9.50
2018-11-26T07:05:11.721Z,9.50
2018-11-26T07:07:40.225Z,9.40
2018-11-26T07:10:09.790Z,9.40
2018-11-26T07:12:38.372Z,9.40
2018-11-26T07:15:10.563Z,9.30
2018-11-26T07:17:39.400Z,9.30
2018-11-26T07:20:17.072Z,9.20
2018-11-26T07:22:46.712Z,9.10
2018-11-26T07:25:16.292Z,9.00
2018-11-26T07:27:47.708Z,9.00
2018-11-26T07:30:19.419Z,8.90
2018-11-26T07:32:47.935Z,8.90
2018-11-26T07:35:17.788Z,8.90
2018-11-26T07:37:46.203Z,8.90
2018-11-26T07:40:18.188Z,8.90
2018-11-26T07:42:52.266Z,8.90
2018-11-26T07:45:20.671Z,9.00
2018-11-26T07:47:49.040Z,9.00
2018-11-26T07:50:17.736Z,9.10
2018-11-26T07:52:46.083Z,9.10
2018-11-26T07:55:16.788Z,9.10
2018-11-26T07:57:45.213Z,9.10
2018-11-26T08:00:16.524Z,9.10
2018-11-26T08:02:45.620Z,9.10
2018-11-26T08:05:18.840Z,9.10
2018-11-26T08:07:47.301Z,9.00
2018-11-26T08:10:17.800Z,9.00
2018-11-26T08:12:47.179Z,9.00
2018-11-26T08:15:22.545Z,9.10
2018-11-26T08:17:50.743Z,9.20
2018-11-26T08:20:19.382Z,9.10
2018-11-26T08:22:47.910Z,9.10
2018-11-26T08:25:18.002Z,9.20
2018-11-26T08:27:47.408Z,9.20
2018-11-26T08:30:16.691Z,9.20
2018-11-26T08:32:46.284Z,9.30
2018-11-26T08:35:15.663Z,9.40
2018-11-26T08:37:49.596Z,9.40
2018-11-26T08:40:23.443Z,9.50
2018-11-26T08:42:57.106Z,9.50
2018-11-26T08:45:30.863Z,9.60
2018-11-26T08:48:04.336Z,9.70
2018-11-26T08:50:32.751Z,9.70
2018-11-26T08:53:01.051Z,9.80
2018-11-26T08:55:29.498Z,9.90
2018-11-26T08:57:57.816Z,9.90
2018-11-26T09:00:26.248Z,10.00
2018-11-26T09:02:55.421Z,10.00
2018-11-26T09:05:29.179Z,10.00
2018-11-26T09:07:57.485Z,10.10
2018-11-26T09:10:25.786Z,10.10
2018-11-26T09:12:54.203Z,10.20
2018-11-26T09:15:22.825Z,10.10
2018-11-26T09:17:51.181Z,10.10
2018-11-26T09:20:19.684Z,10.10
2018-11-26T09:22:48.073Z,10.10
2018-11-26T09:25:16.436Z,10.10
2018-11-26T09:27:44.819Z,10.20
2018-11-26T09:30:14.141Z,10.20
2018-11-26T09:32:43.035Z,10.20
2018-11-26T09:35:13.095Z,10.10
2018-11-26T09:37:41.504Z,10.10
2018-11-26T09:40:11.848Z,10.10
2018-11-26T09:42:40.307Z,10.10
2018-11-26T09:45:12.557Z,10.20
2018-11-26T09:47:40.896Z,10.20
2018-11-26T09:50:19.800Z,10.10
2018-11-26T09:52:48.154Z,10.10
2018-11-26T09:55:17.116Z,10.10
2018-11-26T09:57:45.443Z,10.10
2018-11-26T10:00:17.931Z,10.10
2018-11-26T10:02:47.391Z,10.20
2018-11-26T10:05:24.747Z,10.20
2018-11-26T10:07:53.337Z,10.30
2018-11-26T10:10:21.755Z,10.40
2018-11-26T10:12:50.124Z,10.40
2018-11-26T10:15:19.767Z,10.50
2018-11-26T10:17:48.292Z,10.50
2018-11-26T10:20:16.667Z,10.60
2018-11-26T10:22:45.702Z,10.60
2018-11-26T10:25:15.296Z,10.50
2018-11-26T10:27:44.067Z,10.60
2018-11-26T10:30:13.660Z,10.50
2018-11-26T10:32:42.680Z,10.50
2018-11-26T10:35:12.974Z,10.40
2018-11-26T10:37:41.574Z,10.30
2018-11-26T10:40:18.023Z,10.20
2018-11-26T10:42:46.560Z,10.00
2018-11-26T10:45:17.236Z,10.00
2018-11-26T10:47:45.699Z,10.00
2018-11-26T10:50:16.170Z,10.00
2018-11-26T10:52:47.072Z,9.90
2018-11-26T10:55:25.464Z,9.90
2018-11-26T10:57:53.950Z,9.90
2018-11-26T11:00:28.324Z,10.00
2018-11-26T11:02:57.925Z,10.00
2018-11-26T11:05:28.648Z,10.00
2018-11-26T11:07:57.133Z,10.00
2018-11-26T11:10:27.981Z,10.00
2018-11-26T11:12:56.698Z,10.10
2018-11-26T11:15:26.415Z,10.10
2018-11-26T11:17:55.029Z,10.20
2018-11-26T11:20:26.483Z,10.20
2018-11-26T11:22:54.986Z,10.30
2018-11-26T11:25:23.966Z,10.20
2018-11-26T11:27:52.991Z,10.30
2018-11-26T11:30:30.888Z,10.30
2018-11-26T11:32:59.219Z,10.30
2018-11-26T11:35:28.678Z,10.30
2018-11-26T11:37:57.365Z,10.30
2018-11-26T11:40:27.501Z,10.20
2018-11-26T11:42:56.833Z,10.10
2018-11-26T11:45:27.187Z,10.20
2018-11-26T11:47:59.014Z,10.20
2018-11-26T11:50:27.501Z,10.10
2018-11-26T11:52:55.944Z,10.10
2018-11-26T11:55:25.781Z,10.10
2018-11-26T11:57:54.114Z,10.20
2018-11-26T12:00:29.904Z,10.30
2018-11-26T12:02:58.646Z,10.20
2018-11-26T12:05:27.008Z,10.20
2018-11-26T12:07:55.375Z,10.20
2018-11-26T12:10:23.654Z,10.10
2018-11-26T12:12:51.953Z,10.10
2018-11-26T12:15:20.406Z,10.00
2018-11-26T12:17:49.204Z,10.00
2018-11-26T12:20:17.617Z,10.00
2018-11-26T12:22:46.538Z,10.00
2018-11-26T12:25:19.038Z,10.00
2018-11-26T12:27:47.528Z,9.90
2018-11-26T12:30:18.221Z,9.90
2018-11-26T12:32:46.786Z,10.00
2018-11-26T12:35:15.245Z,10.20
2018-11-26T12:37:43.685Z,10.30
2018-11-26T12:40:14.415Z,10.20
2018-11-26T12:42:42.795Z,10.10
2018-11-26T12:45:29.589Z,10.10
2018-11-26T12:47:58.044Z,10.10
2018-11-26T12:50:26.428Z,10.10
2018-11-26T12:52:54.825Z,10.20
2018-11-26T12:55:23.961Z,10.30
2018-11-26T12:57:53.138Z,10.40
2018-11-26T13:00:24.762Z,10.30
2018-11-26T13:02:54.278Z,10.30
2018-11-26T13:05:22.828Z,10.40
2018-11-26T13:07:51.652Z,10.40
2018-11-26T13:10:21.191Z,10.50
2018-11-26T13:12:50.092Z,10.50
2018-11-26T13:15:22.484Z,10.60
2018-11-26T13:17:50.803Z,10.60
2018-11-26T13:20:21.791Z,10.70
2018-11-26T13:22:50.721Z,10.80
2018-11-26T13:25:21.500Z,10.80
2018-11-26T13:27:52.373Z,10.80
2018-11-26T13:30:27.639Z,10.80
2018-11-26T13:32:57.283Z,10.80
2018-11-26T13:35:25.625Z,10.80
2018-11-26T13:37:54.073Z,10.80
2018-11-26T13:40:22.733Z,10.80
2018-11-26T13:42:51.581Z,10.80
2018-11-26T13:45:24.269Z,10.70
2018-11-26T13:47:52.734Z,10.60
2018-11-26T13:50:23.388Z,10.50
2018-11-26T13:52:51.830Z,10.50
2018-11-26T13:55:20.353Z,10.60
2018-11-26T13:57:48.684Z,10.60
2018-11-26T14:00:17.463Z,10.60
2018-11-26T14:02:45.863Z,10.70
2018-11-26T14:05:15.428Z,10.80
2018-11-26T14:07:44.357Z,10.80
2018-11-26T14:10:20.724Z,10.80
2018-11-26T14:12:52.054Z,10.80
2018-11-26T14:15:20.530Z,10.80
2018-11-26T14:17:48.947Z,10.70
2018-11-26T14:20:17.376Z,10.80
2018-11-26T14:22:45.803Z,10.60
2018-11-26T14:25:17.270Z,10.60
2018-11-26T14:27:46.025Z,10.60
2018-11-26T14:30:16.947Z,10.60
2018-11-26T14:32:45.402Z,10.60
2018-11-26T14:35:13.843Z,10.70
2018-11-26T14:37:42.685Z,10.60
2018-11-26T14:40:29.225Z,10.40
2018-11-26T14:42:57.518Z,10.30
2018-11-26T14:45:25.874Z,10.30
2018-11-26T14:47:54.210Z,10.30
2018-11-26T14:50:22.657Z,10.30
2018-11-26T14:52:51.114Z,10.30
2018-11-26T14:55:25.781Z,10.30
2018-11-26T14:57:54.141Z,10.30
2018-11-26T15:00:22.720Z,10.40
2018-11-26T15:02:51.145Z,10.30
2018-11-26T15:05:19.592Z,10.10
2018-11-26T15:07:48.071Z,10.00
2018-11-26T15:10:17.807Z,9.90
2018-11-26T15:12:46.474Z,9.90
2018-11-26T15:15:16.107Z,9.90
2018-11-26T15:17:45.159Z,9.80
2018-11-26T15:20:15.930Z,9.70
2018-11-26T15:22:44.331Z,9.80
2018-11-26T15:25:17.350Z,9.90
2018-11-26T15:27:45.698Z,9.90
2018-11-26T15:30:16.183Z,9.90
2018-11-26T15:32:44.732Z,9.90
2018-11-26T15:35:14.361Z,9.90
2018-11-26T15:37:42.766Z,9.90
2018-11-26T15:40:12.462Z,9.90
2018-11-26T15:42:40.820Z,9.80
2018-11-26T15:45:15.458Z,9.80
2018-11-26T15:47:43.797Z,9.80
2018-11-26T15:50:12.177Z,9.80
2018-11-26T15:52:40.759Z,9.80
2018-11-26T15:55:11.707Z,9.90
2018-11-26T15:57:41.230Z,9.80
2018-11-26T16:00:25.139Z,9.80
2018-11-26T16:02:53.931Z,9.70
2018-11-26T16:05:25.197Z,9.70
2018-11-26T16:07:54.837Z,9.70
2018-11-26T16:10:23.241Z,9.80
2018-11-26T16:12:53.973Z,9.70
2018-11-26T16:15:25.854Z,9.70
2018-11-26T16:17:55.745Z,9.60
2018-11-26T16:20:25.561Z,9.60
2018-11-26T16:22:54.229Z,9.70
2018-11-26T16:25:23.529Z,9.70
2018-11-26T16:27:51.959Z,9.80
2018-11-26T16:30:20.344Z,9.80
2018-11-26T16:32:51.806Z,9.80
2018-11-26T16:35:22.334Z,9.80
2018-11-26T16:37:51.687Z,9.80
2018-11-26T16:40:20.581Z,9.80
2018-11-26T16:42:49.096Z,9.80
2018-11-26T16:45:20.541Z,9.90
2018-11-26T16:47:50.878Z,9.80
2018-11-26T16:50:21.979Z,9.80
2018-11-26T16:52:51.739Z,9.80
2018-11-26T16:55:19.916Z,9.80
2018-11-26T16:57:48.618Z,9.80
2018-11-26T17:00:20.414Z,9.80
2018-11-26T17:02:50.698Z,9.70
2018-11-26T17:05:23.528Z,9.70
2018-11-26T17:07:52.592Z,9.60
2018-11-26T17:10:22.186Z,9.60
2018-11-26T17:12:50.873Z,9.60
2018-11-26T17:15:19.802Z,9.50
2018-11-26T17:17:48.458Z,9.60
2018-11-26T17:20:18.255Z,9.60
2018-11-26T17:22:47.977Z,9.50
2018-11-26T17:25:17.513Z,9.60
2018-11-26T17:27:46.167Z,9.60
2018-11-26T17:30:19.917Z,9.60
2018-11-26T17:32:52.746Z,9.50
2018-11-26T17:35:21.285Z,9.50
2018-11-26T17:37:49.710Z,9.50
2018-11-26T17:40:20.437Z,9.60
2018-11-26T17:42:49.571Z,9.60
2018-11-26T17:45:18.463Z,9.60
2018-11-26T17:47:49.019Z,9.60
2018-11-26T17:50:22.103Z,9.60
2018-11-26T17:52:50.428Z,9.60
2018-11-26T17:55:18.953Z,9.60
2018-11-26T17:57:47.691Z,9.60
2018-11-26T18:00:25.686Z,9.60
2018-11-26T18:02:54.003Z,9.60
2018-11-26T18:05:23.958Z,9.50
2018-11-26T18:07:56.284Z,9.60
2018-11-26T18:10:24.811Z,9.60
2018-11-26T18:12:53.164Z,9.60
2018-11-26T18:15:21.556Z,9.60
2018-11-26T18:17:50.366Z,9.60
2018-11-26T18:20:20.269Z,9.70
2018-11-26T18:22:50.716Z,9.70
2018-11-26T18:25:19.768Z,9.70
2018-11-26T18:27:53.040Z,9.60
2018-11-26T18:30:27.530Z,9.60
2018-11-26T18:32:55.852Z,9.70
2018-11-26T18:35:24.287Z,9.70
2018-11-26T18:37:52.753Z,9.60
2018-11-26T18:40:21.150Z,9.60
2018-11-26T18:42:49.909Z,9.60
2018-11-26T18:45:18.831Z,9.50
2018-11-26T18:47:48.087Z,9.40
2018-11-26T18:50:18.731Z,9.30
2018-11-26T18:52:48.612Z,9.30
2018-11-26T18:55:17.741Z,9.30
2018-11-26T18:57:46.811Z,9.30
2018-11-26T19:00:27.050Z,9.40
2018-11-26T19:02:56.710Z,9.40
2018-11-26T19:05:25.274Z,9.50
2018-11-26T19:07:53.777Z,9.50
2018-11-26T19:10:28.417Z,9.50
2018-11-26T19:13:04.807Z,9.50
2018-11-26T19:15:36.136Z,9.50
2018-11-26T19:18:14.331Z,9.40
2018-11-26T19:20:43.075Z,9.40
2018-11-26T19:23:11.536Z,9.40
2018-11-26T19:25:40.552Z,9.30
2018-11-26T19:28:09.125Z,9.30
2018-11-26T19:30:37.834Z,9.30
2018-11-26T19:33:08.118Z,9.30
2018-11-26T19:35:36.659Z,9.20
2018-11-26T19:38:05.814Z,9.20
2018-11-26T19:40:34.755Z,9.10
2018-11-26T19:43:03.218Z,9.10
2018-11-26T19:45:32.335Z,9.10
2018-11-26T19:48:00.780Z,9.00
2018-11-26T19:50:30.198Z,8.90
2018-11-26T19:52:58.136Z,8.80
2018-11-26T19:55:27.161Z,8.70
2018-11-26T19:57:57.377Z,8.70
2018-11-26T20:00:26.877Z,8.70
2018-11-26T20:03:02.976Z,8.70
2018-11-26T20:05:39.112Z,8.70
2018-11-26T20:08:09.324Z,8.70
2018-11-26T20:10:37.808Z,8.70
2018-11-26T20:13:06.604Z,8.70
2018-11-26T20:15:35.089Z,8.70
2018-11-26T20:18:03.727Z,8.70
2018-11-26T20:20:32.745Z,8.70
2018-11-26T20:23:01.194Z,8.60
2018-11-26T20:25:30.390Z,8.60
2018-11-26T20:27:58.837Z,8.70
2018-11-26T20:30:27.190Z,8.70
2018-11-26T20:32:55.617Z,8.70
2018-11-26T20:35:24.028Z,8.60
2018-11-26T20:37:54.169Z,8.60
2018-11-26T20:40:22.677Z,8.50
2018-11-26T20:42:52.809Z,8.50
2018-11-26T20:45:21.975Z,8.50
2018-11-26T20:47:52.433Z,8.30
2018-11-26T20:50:23.350Z,8.30
2018-11-26T20:52:52.262Z,8.30
2018-11-26T20:55:22.273Z,8.30
2018-11-26T20:57:52.814Z,8.20
2018-11-26T21:00:24.361Z,8.20
2018-11-26T21:02:54.102Z,8.20
2018-11-26T21:05:22.701Z,8.20
2018-11-26T21:07:51.057Z,8.20
2018-11-26T21:10:19.608Z,8.20
2018-11-26T21:12:49.120Z,8.30
2018-11-26T21:15:20.791Z,8.30
2018-11-26T21:17:51.344Z,8.30
2018-11-26T21:20:26.326Z,8.30
2018-11-26T21:22:55.549Z,8.20
2018-11-26T21:25:24.050Z,8.20
2018-11-26T21:27:52.618Z,8.20
2018-11-26T21:30:21.189Z,8.20
2018-11-26T21:32:50.061Z,8.10
2018-11-26T21:35:19.580Z,8.10
2018-11-26T21:37:50.826Z,8.10
2018-11-26T21:40:20.872Z,8.10
2018-11-26T21:42:50.619Z,8.10
2018-11-26T21:45:24.346Z,8.00
2018-11-26T21:47:52.719Z,8.10
2018-11-26T21:50:21.125Z,8.00
2018-11-26T21:52:49.594Z,8.00
2018-11-26T21:55:18.517Z,8.00
2018-11-26T21:57:46.893Z,8.00
2018-11-26T22:00:20.558Z,7.90
2018-11-26T22:02:49.048Z,8.00
2018-11-26T22:05:17.873Z,8.00
2018-11-26T22:07:46.261Z,8.00
2018-11-26T22:10:15.981Z,7.90
2018-11-26T22:12:47.025Z,7.90
2018-11-26T22:15:15.469Z,7.90
2018-11-26T22:17:43.970Z,7.80
2018-11-26T22:20:14.870Z,7.70
2018-11-26T22:22:43.543Z,7.60
2018-11-26T22:25:13.573Z,7.60
2018-11-26T22:27:42.786Z,7.60
2018-11-26T22:30:14.555Z,7.60
2018-11-26T22:32:43.431Z,7.70
2018-11-26T22:35:12.606Z,7.70
2018-11-26T22:37:41.154Z,7.80
2018-11-26T22:40:12.920Z,7.80
2018-11-26T22:42:42.236Z,7.80
2018-11-26T22:45:19.767Z,7.70
2018-11-26T22:47:54.951Z,7.70
2018-11-26T22:50:23.873Z,7.70
2018-11-26T22:52:52.387Z,7.70
2018-11-26T22:55:20.794Z,7.70
2018-11-26T22:57:50.679Z,7.70
2018-11-26T23:00:54.787Z,7.70
2018-11-26T23:03:26.844Z,7.70
2018-11-26T23:05:55.186Z,7.70
2018-11-26T23:08:23.502Z,7.60
2018-11-26T23:10:52.091Z,7.60
2018-11-26T23:13:20.615Z,7.60
2018-11-26T23:15:49.106Z,7.60
2018-11-26T23:18:17.576Z,7.70
2018-11-26T23:20:46.630Z,7.70
2018-11-26T23:23:15.109Z,7.70
2018-11-26T23:25:43.480Z,7.70
2018-11-26T23:28:11.932Z,7.70
2018-11-26T23:30:40.576Z,7.80
2018-11-26T23:33:09.232Z,7.80
2018-11-26T23:35:37.718Z,7.80
2018-11-26T23:38:06.202Z,7.80
2018-11-26T23:40:35.323Z,7.80
2018-11-26T23:43:03.736Z,7.90
2018-11-26T23:45:32.134Z,7.80
2018-11-26T23:48:00.620Z,7.70
2018-11-26T23:50:28.993Z,7.70
2018-11-26T23:52:57.366Z,7.70
2018-11-26T23:55:26.765Z,7.70
2018-11-26T23:57:55.144Z,7.70
